sensor_id;sensor_type;location;lat;lon;timestamp;P1;durP1;ratioP1;P2;durP2;ratioP2
75165;SDS011;63747;48.042;10.088;2022-12-10T00:06:20;40.42;;;26.20;;
75165;SDS011;63747;48.042;10.088;2022-12-10T00:09:23;42.65;;;27.83;;
75165;SDS011;63747;48.042;10.088;2022-12-10T00:12:23;41.83;;;26.33;;
75165;SDS011;63747;48.042;10.088;2022-12-10T00:15:24;44.23;;;27.93;;
75165;SDS011;63747;48.042;10.088;2022-12-10T00:18:25;40.77;;;27.67;;
75165;SDS011;63747;48.042;10.088;2022-12-10T00:21:27;41.90;;;27.63;;
75165;SDS011;63747;48.042;10.088;2022-12-10T00:24:30;47.40;;;27.13;;
75165;SDS011;63747;48.042;10.088;2022-12-10T00:27:30;43.27;;;27.43;;
75165;SDS011;63747;48.042;10.088;2022-12-10T00:34:27;39.83;;;25.20;;
75165;SDS011;63747;48.042;10.088;2022-12-10T00:37:28;45.00;;;26.40;;
75165;SDS011;63747;48.042;10.088;2022-12-10T00:40:29;42.95;;;26.27;;
75165;SDS011;63747;48.042;10.088;2022-12-10T00:46:54;48.50;;;26.92;;
75165;SDS011;63747;48.042;10.088;2022-12-10T00:49:55;39.30;;;23.33;;
75165;SDS011;63747;48.042;10.088;2022-12-10T00:52:56;41.93;;;25.33;;
75165;SDS011;63747;48.042;10.088;2022-12-10T00:55:57;44.93;;;24.00;;
75165;SDS011;63747;48.042;10.088;2022-12-10T00:58:58;45.65;;;26.25;;
75165;SDS011;63747;48.042;10.088;2022-12-10T01:13:19;45.65;;;25.83;;
75165;SDS011;63747;48.042;10.088;2022-12-10T01:16:20;56.13;;;27.20;;
75165;SDS011;63747;48.042;10.088;2022-12-10T01:23:19;43.53;;;26.45;;
75165;SDS011;63747;48.042;10.088;2022-12-10T01:26:21;42.33;;;26.07;;
75165;SDS011;63747;48.042;10.088;2022-12-10T01:29:23;50.38;;;28.23;;
75165;SDS011;63747;48.042;10.088;2022-12-10T01:32:41;53.00;;;28.70;;
75165;SDS011;63747;48.042;10.088;2022-12-10T01:35:42;44.60;;;26.45;;
75165;SDS011;63747;48.042;10.088;2022-12-10T01:42:39;45.38;;;26.55;;
75165;SDS011;63747;48.042;10.088;2022-12-10T01:45:40;44.63;;;27.47;;
75165;SDS011;63747;48.042;10.088;2022-12-10T01:48:41;39.77;;;27.03;;
75165;SDS011;63747;48.042;10.088;2022-12-10T01:51:43;42.73;;;26.77;;
75165;SDS011;63747;48.042;10.088;2022-12-10T01:54:46;43.63;;;27.33;;
75165;SDS011;63747;48.042;10.088;2022-12-10T01:57:47;42.20;;;26.75;;
75165;SDS011;63747;48.042;10.088;2022-12-10T02:07:22;48.03;;;27.42;;
75165;SDS011;63747;48.042;10.088;2022-12-10T02:13:55;41.72;;;24.63;;
75165;SDS011;63747;48.042;10.088;2022-12-10T02:17:02;46.13;;;26.10;;
75165;SDS011;63747;48.042;10.088;2022-12-10T02:20:19;44.22;;;26.42;;
75165;SDS011;63747;48.042;10.088;2022-12-10T02:23:30;45.15;;;26.48;;
75165;SDS011;63747;48.042;10.088;2022-12-10T02:29:46;45.90;;;27.60;;
75165;SDS011;63747;48.042;10.088;2022-12-10T02:32:49;44.08;;;27.10;;
75165;SDS011;63747;48.042;10.088;2022-12-10T02:35:50;47.28;;;28.13;;
75165;SDS011;63747;48.042;10.088;2022-12-10T02:38:54;45.78;;;27.23;;
75165;SDS011;63747;48.042;10.088;2022-12-10T02:41:58;45.60;;;26.20;;
75165;SDS011;63747;48.042;10.088;2022-12-10T02:45:02;48.47;;;26.38;;
75165;SDS011;63747;48.042;10.088;2022-12-10T02:48:04;47.30;;;26.55;;
75165;SDS011;63747;48.042;10.088;2022-12-10T02:51:06;45.00;;;26.63;;
75165;SDS011;63747;48.042;10.088;2022-12-10T02:54:31;47.77;;;26.43;;
75165;SDS011;63747;48.042;10.088;2022-12-10T03:12:17;53.20;;;27.10;;
75165;SDS011;63747;48.042;10.088;2022-12-10T03:15:26;53.90;;;27.60;;
75165;SDS011;63747;48.042;10.088;2022-12-10T03:18:40;48.50;;;26.92;;
75165;SDS011;63747;48.042;10.088;2022-12-10T03:24:44;52.25;;;27.05;;
75165;SDS011;63747;48.042;10.088;2022-12-10T03:27:45;54.00;;;27.63;;
75165;SDS011;63747;48.042;10.088;2022-12-10T03:30:52;54.28;;;26.83;;
75165;SDS011;63747;48.042;10.088;2022-12-10T03:37:53;48.67;;;25.60;;
75165;SDS011;63747;48.042;10.088;2022-12-10T03:40:54;58.05;;;26.17;;
75165;SDS011;63747;48.042;10.088;2022-12-10T03:43:56;50.67;;;26.27;;
75165;SDS011;63747;48.042;10.088;2022-12-10T03:46:59;45.88;;;25.65;;
75165;SDS011;63747;48.042;10.088;2022-12-10T03:50:01;51.58;;;26.08;;
75165;SDS011;63747;48.042;10.088;2022-12-10T03:56:58;48.70;;;26.25;;
75165;SDS011;63747;48.042;10.088;2022-12-10T03:59:59;48.67;;;26.20;;
75165;SDS011;63747;48.042;10.088;2022-12-10T04:03:00;54.43;;;26.13;;
75165;SDS011;63747;48.042;10.088;2022-12-10T04:06:02;56.07;;;24.13;;
75165;SDS011;63747;48.042;10.088;2022-12-10T04:09:03;65.00;;;26.85;;
75165;SDS011;63747;48.042;10.088;2022-12-10T04:16:01;68.70;;;27.35;;
75165;SDS011;63747;48.042;10.088;2022-12-10T04:19:28;69.03;;;26.75;;
75165;SDS011;63747;48.042;10.088;2022-12-10T04:22:29;72.20;;;26.75;;
75165;SDS011;63747;48.042;10.088;2022-12-10T04:25:48;80.70;;;26.42;;
75165;SDS011;63747;48.042;10.088;2022-12-10T04:32:30;54.30;;;24.20;;
75165;SDS011;63747;48.042;10.088;2022-12-10T04:35:39;72.55;;;25.10;;
75165;SDS011;63747;48.042;10.088;2022-12-10T04:38:40;82.30;;;27.75;;
75165;SDS011;63747;48.042;10.088;2022-12-10T04:41:41;77.10;;;26.97;;
75165;SDS011;63747;48.042;10.088;2022-12-10T04:44:43;60.95;;;26.02;;
75165;SDS011;63747;48.042;10.088;2022-12-10T04:47:44;62.23;;;25.53;;
75165;SDS011;63747;48.042;10.088;2022-12-10T04:50:45;62.87;;;24.60;;
75165;SDS011;63747;48.042;10.088;2022-12-10T04:53:46;47.65;;;22.90;;
75165;SDS011;63747;48.042;10.088;2022-12-10T04:56:47;52.67;;;24.77;;
75165;SDS011;63747;48.042;10.088;2022-12-10T04:59:48;53.60;;;23.90;;
75165;SDS011;63747;48.042;10.088;2022-12-10T05:02:48;56.67;;;24.30;;
75165;SDS011;63747;48.042;10.088;2022-12-10T05:05:49;53.20;;;24.63;;
75165;SDS011;63747;48.042;10.088;2022-12-10T05:08:50;50.87;;;23.40;;
75165;SDS011;63747;48.042;10.088;2022-12-10T05:11:51;55.40;;;25.20;;
75165;SDS011;63747;48.042;10.088;2022-12-10T05:14:51;54.50;;;23.43;;
75165;SDS011;63747;48.042;10.088;2022-12-10T05:17:52;52.77;;;24.67;;
75165;SDS011;63747;48.042;10.088;2022-12-10T05:20:53;49.83;;;24.97;;
75165;SDS011;63747;48.042;10.088;2022-12-10T05:23:53;52.57;;;23.73;;
75165;SDS011;63747;48.042;10.088;2022-12-10T05:26:54;55.20;;;24.57;;
75165;SDS011;63747;48.042;10.088;2022-12-10T05:33:29;53.28;;;23.63;;
75165;SDS011;63747;48.042;10.088;2022-12-10T05:36:47;49.42;;;23.13;;
75165;SDS011;63747;48.042;10.088;2022-12-10T05:39:48;51.47;;;23.25;;
75165;SDS011;63747;48.042;10.088;2022-12-10T05:42:48;53.50;;;23.30;;
75165;SDS011;63747;48.042;10.088;2022-12-10T05:45:49;48.13;;;23.17;;
75165;SDS011;63747;48.042;10.088;2022-12-10T05:48:50;53.17;;;23.33;;
75165;SDS011;63747;48.042;10.088;2022-12-10T05:51:51;50.08;;;22.95;;
75165;SDS011;63747;48.042;10.088;2022-12-10T05:54:56;46.08;;;21.80;;
75165;SDS011;63747;48.042;10.088;2022-12-10T05:57:57;47.50;;;22.33;;
75165;SDS011;63747;48.042;10.088;2022-12-10T06:00:58;48.73;;;22.13;;
75165;SDS011;63747;48.042;10.088;2022-12-10T06:04:00;52.30;;;23.20;;
75165;SDS011;63747;48.042;10.088;2022-12-10T06:07:02;44.42;;;20.48;;
75165;SDS011;63747;48.042;10.088;2022-12-10T06:10:02;44.00;;;20.73;;
75165;SDS011;63747;48.042;10.088;2022-12-10T06:13:03;44.37;;;21.43;;
75165;SDS011;63747;48.042;10.088;2022-12-10T06:16:08;42.30;;;21.90;;
75165;SDS011;63747;48.042;10.088;2022-12-10T06:19:11;49.53;;;22.20;;
75165;SDS011;63747;48.042;10.088;2022-12-10T06:22:12;49.00;;;23.23;;
75165;SDS011;63747;48.042;10.088;2022-12-10T06:25:13;46.80;;;23.30;;
75165;SDS011;63747;48.042;10.088;2022-12-10T06:28:14;45.40;;;21.63;;
75165;SDS011;63747;48.042;10.088;2022-12-10T06:31:14;42.97;;;20.50;;
75165;SDS011;63747;48.042;10.088;2022-12-10T06:34:16;35.45;;;17.73;;
75165;SDS011;63747;48.042;10.088;2022-12-10T06:37:16;57.63;;;24.03;;
75165;SDS011;63747;48.042;10.088;2022-12-10T06:40:17;57.07;;;26.27;;
75165;SDS011;63747;48.042;10.088;2022-12-10T06:43:19;58.42;;;24.38;;
75165;SDS011;63747;48.042;10.088;2022-12-10T06:46:20;61.03;;;30.08;;
75165;SDS011;63747;48.042;10.088;2022-12-10T06:49:21;56.27;;;27.97;;
75165;SDS011;63747;48.042;10.088;2022-12-10T06:52:22;46.90;;;24.43;;
75165;SDS011;63747;48.042;10.088;2022-12-10T06:55:22;39.67;;;23.67;;
75165;SDS011;63747;48.042;10.088;2022-12-10T06:58:23;43.07;;;24.70;;
75165;SDS011;63747;48.042;10.088;2022-12-10T07:01:24;45.70;;;28.43;;
75165;SDS011;63747;48.042;10.088;2022-12-10T07:04:26;51.03;;;30.67;;
75165;SDS011;63747;48.042;10.088;2022-12-10T07:07:26;49.87;;;30.07;;
75165;SDS011;63747;48.042;10.088;2022-12-10T07:10:27;55.07;;;31.30;;
75165;SDS011;63747;48.042;10.088;2022-12-10T07:13:28;55.43;;;31.10;;
75165;SDS011;63747;48.042;10.088;2022-12-10T07:16:29;52.67;;;32.03;;
75165;SDS011;63747;48.042;10.088;2022-12-10T07:19:31;53.03;;;33.90;;
75165;SDS011;63747;48.042;10.088;2022-12-10T07:22:32;52.90;;;32.97;;
75165;SDS011;63747;48.042;10.088;2022-12-10T07:25:33;57.07;;;36.30;;
75165;SDS011;63747;48.042;10.088;2022-12-10T07:28:33;52.97;;;34.17;;
75165;SDS011;63747;48.042;10.088;2022-12-10T07:31:35;52.57;;;32.57;;
75165;SDS011;63747;48.042;10.088;2022-12-10T07:34:36;50.63;;;32.00;;
75165;SDS011;63747;48.042;10.088;2022-12-10T07:37:37;51.23;;;33.23;;
75165;SDS011;63747;48.042;10.088;2022-12-10T07:40:37;47.63;;;30.70;;
75165;SDS011;63747;48.042;10.088;2022-12-10T07:43:39;46.70;;;27.43;;
75165;SDS011;63747;48.042;10.088;2022-12-10T07:46:41;44.45;;;25.95;;
75165;SDS011;63747;48.042;10.088;2022-12-10T07:49:42;41.57;;;28.57;;
75165;SDS011;63747;48.042;10.088;2022-12-10T07:52:43;40.80;;;27.53;;
75165;SDS011;63747;48.042;10.088;2022-12-10T07:55:43;41.20;;;27.10;;
75165;SDS011;63747;48.042;10.088;2022-12-10T07:58:44;42.23;;;26.93;;
75165;SDS011;63747;48.042;10.088;2022-12-10T08:01:45;42.10;;;27.70;;
75165;SDS011;63747;48.042;10.088;2022-12-10T08:04:46;40.93;;;26.97;;
75165;SDS011;63747;48.042;10.088;2022-12-10T08:07:47;38.97;;;25.77;;
75165;SDS011;63747;48.042;10.088;2022-12-10T08:10:47;42.17;;;27.50;;
75165;SDS011;63747;48.042;10.088;2022-12-10T08:13:48;37.50;;;26.07;;
75165;SDS011;63747;48.042;10.088;2022-12-10T08:16:49;45.58;;;29.08;;
75165;SDS011;63747;48.042;10.088;2022-12-10T08:19:50;44.73;;;28.83;;
75165;SDS011;63747;48.042;10.088;2022-12-10T08:22:51;35.77;;;25.00;;
75165;SDS011;63747;48.042;10.088;2022-12-10T08:25:51;43.10;;;27.43;;
75165;SDS011;63747;48.042;10.088;2022-12-10T08:28:52;41.33;;;27.43;;
75165;SDS011;63747;48.042;10.088;2022-12-10T08:31:54;44.47;;;28.15;;
75165;SDS011;63747;48.042;10.088;2022-12-10T08:34:55;37.83;;;23.73;;
75165;SDS011;63747;48.042;10.088;2022-12-10T08:37:56;41.27;;;27.23;;
75165;SDS011;63747;48.042;10.088;2022-12-10T08:40:56;38.67;;;23.10;;
75165;SDS011;63747;48.042;10.088;2022-12-10T08:43:57;43.37;;;28.03;;
75165;SDS011;63747;48.042;10.088;2022-12-10T08:46:58;37.03;;;23.00;;
75165;SDS011;63747;48.042;10.088;2022-12-10T08:49:58;38.70;;;26.63;;
75165;SDS011;63747;48.042;10.088;2022-12-10T08:52:59;41.10;;;27.57;;
75165;SDS011;63747;48.042;10.088;2022-12-10T08:56:16;38.77;;;25.60;;
75165;SDS011;63747;48.042;10.088;2022-12-10T09:03:04;39.85;;;26.17;;
75165;SDS011;63747;48.042;10.088;2022-12-10T09:06:13;30.75;;;19.83;;
75165;SDS011;63747;48.042;10.088;2022-12-10T09:09:17;28.37;;;18.93;;
75165;SDS011;63747;48.042;10.088;2022-12-10T09:12:17;34.65;;;24.00;;
75165;SDS011;63747;48.042;10.088;2022-12-10T09:15:18;37.60;;;23.33;;
75165;SDS011;63747;48.042;10.088;2022-12-10T09:18:19;42.23;;;24.93;;
75165;SDS011;63747;48.042;10.088;2022-12-10T09:24:47;32.45;;;19.70;;
75165;SDS011;63747;48.042;10.088;2022-12-10T09:27:55;27.20;;;16.40;;
75165;SDS011;63747;48.042;10.088;2022-12-10T09:30:58;32.72;;;22.63;;
75165;SDS011;63747;48.042;10.088;2022-12-10T09:34:01;35.83;;;22.63;;
75165;SDS011;63747;48.042;10.088;2022-12-10T09:37:02;23.02;;;16.80;;
75165;SDS011;63747;48.042;10.088;2022-12-10T09:40:03;21.00;;;14.53;;
75165;SDS011;63747;48.042;10.088;2022-12-10T09:43:09;22.20;;;15.77;;
75165;SDS011;63747;48.042;10.088;2022-12-10T09:50:04;22.90;;;15.77;;
75165;SDS011;63747;48.042;10.088;2022-12-10T09:53:23;23.35;;;16.30;;
75165;SDS011;63747;48.042;10.088;2022-12-10T09:56:28;20.20;;;14.27;;
75165;SDS011;63747;48.042;10.088;2022-12-10T09:59:37;22.70;;;15.30;;
75165;SDS011;63747;48.042;10.088;2022-12-10T10:02:40;25.38;;;17.17;;
75165;SDS011;63747;48.042;10.088;2022-12-10T10:05:51;20.53;;;14.37;;
75165;SDS011;63747;48.042;10.088;2022-12-10T10:08:55;19.55;;;14.45;;
75165;SDS011;63747;48.042;10.088;2022-12-10T10:11:59;14.15;;;9.80;;
75165;SDS011;63747;48.042;10.088;2022-12-10T10:15:09;20.47;;;13.63;;
75165;SDS011;63747;48.042;10.088;2022-12-10T10:21:22;21.92;;;15.93;;
75165;SDS011;63747;48.042;10.088;2022-12-10T10:24:26;21.90;;;16.08;;
75165;SDS011;63747;48.042;10.088;2022-12-10T10:27:34;22.00;;;14.82;;
75165;SDS011;63747;48.042;10.088;2022-12-10T10:30:34;22.57;;;15.27;;
75165;SDS011;63747;48.042;10.088;2022-12-10T10:33:36;20.87;;;13.93;;
75165;SDS011;63747;48.042;10.088;2022-12-10T10:36:58;20.50;;;15.50;;
75165;SDS011;63747;48.042;10.088;2022-12-10T10:40:03;23.77;;;17.35;;
75165;SDS011;63747;48.042;10.088;2022-12-10T10:43:05;26.42;;;17.13;;
75165;SDS011;63747;48.042;10.088;2022-12-10T10:46:11;26.42;;;19.00;;
75165;SDS011;63747;48.042;10.088;2022-12-10T10:49:14;26.85;;;18.80;;
75165;SDS011;63747;48.042;10.088;2022-12-10T10:52:29;29.02;;;20.20;;
75165;SDS011;63747;48.042;10.088;2022-12-10T10:55:31;16.77;;;12.13;;
75165;SDS011;63747;48.042;10.088;2022-12-10T10:58:36;29.95;;;20.58;;
75165;SDS011;63747;48.042;10.088;2022-12-10T11:01:48;26.02;;;17.23;;
75165;SDS011;63747;48.042;10.088;2022-12-10T11:04:52;24.70;;;17.52;;
75165;SDS011;63747;48.042;10.088;2022-12-10T11:08:12;26.40;;;17.92;;
75165;SDS011;63747;48.042;10.088;2022-12-10T11:11:19;26.30;;;16.80;;
75165;SDS011;63747;48.042;10.088;2022-12-10T11:17:26;24.48;;;18.33;;
75165;SDS011;63747;48.042;10.088;2022-12-10T11:20:29;24.75;;;18.40;;
75165;SDS011;63747;48.042;10.088;2022-12-10T11:23:37;24.08;;;17.25;;
75165;SDS011;63747;48.042;10.088;2022-12-10T11:26:42;16.83;;;11.93;;
75165;SDS011;63747;48.042;10.088;2022-12-10T11:30:11;17.20;;;12.48;;
75165;SDS011;63747;48.042;10.088;2022-12-10T11:36:40;18.52;;;13.20;;
75165;SDS011;63747;48.042;10.088;2022-12-10T11:49:40;23.65;;;17.25;;
75165;SDS011;63747;48.042;10.088;2022-12-10T12:21:53;27.27;;;19.02;;
75165;SDS011;63747;48.042;10.088;2022-12-10T12:24:59;17.33;;;10.35;;
75165;SDS011;63747;48.042;10.088;2022-12-10T12:31:49;24.63;;;18.23;;
75165;SDS011;63747;48.042;10.088;2022-12-10T12:38:03;21.83;;;15.13;;
75165;SDS011;63747;48.042;10.088;2022-12-10T12:41:17;23.52;;;17.65;;
75165;SDS011;63747;48.042;10.088;2022-12-10T12:48:09;22.10;;;15.30;;
75165;SDS011;63747;48.042;10.088;2022-12-10T12:54:28;22.67;;;15.25;;
75165;SDS011;63747;48.042;10.088;2022-12-10T13:01:12;23.60;;;16.05;;
75165;SDS011;63747;48.042;10.088;2022-12-10T13:04:14;20.05;;;15.18;;
75165;SDS011;63747;48.042;10.088;2022-12-10T13:10:23;24.37;;;17.37;;
75165;SDS011;63747;48.042;10.088;2022-12-10T13:19:41;24.92;;;17.80;;
75165;SDS011;63747;48.042;10.088;2022-12-10T13:22:43;23.00;;;17.58;;
75165;SDS011;63747;48.042;10.088;2022-12-10T13:25:56;24.23;;;16.27;;
75165;SDS011;63747;48.042;10.088;2022-12-10T13:29:19;26.33;;;18.40;;
75165;SDS011;63747;48.042;10.088;2022-12-10T13:35:32;19.55;;;14.23;;
75165;SDS011;63747;48.042;10.088;2022-12-10T13:38:54;23.33;;;15.77;;
75165;SDS011;63747;48.042;10.088;2022-12-10T13:42:40;24.48;;;16.83;;
75165;SDS011;63747;48.042;10.088;2022-12-10T13:45:49;20.23;;;13.40;;
75165;SDS011;63747;48.042;10.088;2022-12-10T13:49:29;23.52;;;15.15;;
75165;SDS011;63747;48.042;10.088;2022-12-10T13:52:38;20.15;;;15.43;;
75165;SDS011;63747;48.042;10.088;2022-12-10T13:55:59;14.68;;;10.43;;
75165;SDS011;63747;48.042;10.088;2022-12-10T14:02:42;7.88;;;5.40;;
75165;SDS011;63747;48.042;10.088;2022-12-10T14:09:20;10.95;;;8.45;;
75165;SDS011;63747;48.042;10.088;2022-12-10T14:12:29;10.77;;;8.18;;
75165;SDS011;63747;48.042;10.088;2022-12-10T14:15:34;8.57;;;6.30;;
75165;SDS011;63747;48.042;10.088;2022-12-10T14:18:40;11.13;;;7.47;;
75165;SDS011;63747;48.042;10.088;2022-12-10T14:21:43;9.65;;;7.00;;
75165;SDS011;63747;48.042;10.088;2022-12-10T14:24:47;10.30;;;7.40;;
75165;SDS011;63747;48.042;10.088;2022-12-10T14:27:51;9.57;;;7.10;;
75165;SDS011;63747;48.042;10.088;2022-12-10T14:30:53;10.48;;;8.02;;
75165;SDS011;63747;48.042;10.088;2022-12-10T14:33:55;9.63;;;6.50;;
75165;SDS011;63747;48.042;10.088;2022-12-10T14:37:01;8.63;;;6.57;;
75165;SDS011;63747;48.042;10.088;2022-12-10T14:40:05;10.32;;;6.55;;
75165;SDS011;63747;48.042;10.088;2022-12-10T14:43:14;10.43;;;7.85;;
75165;SDS011;63747;48.042;10.088;2022-12-10T14:46:25;11.57;;;8.23;;
75165;SDS011;63747;48.042;10.088;2022-12-10T14:49:37;9.45;;;7.22;;
75165;SDS011;63747;48.042;10.088;2022-12-10T14:52:50;13.38;;;8.38;;
75165;SDS011;63747;48.042;10.088;2022-12-10T14:56:02;11.82;;;7.82;;
75165;SDS011;63747;48.042;10.088;2022-12-10T14:59:26;11.82;;;8.60;;
75165;SDS011;63747;48.042;10.088;2022-12-10T15:02:39;12.20;;;9.10;;
75165;SDS011;63747;48.042;10.088;2022-12-10T15:05:58;13.27;;;9.60;;
75165;SDS011;63747;48.042;10.088;2022-12-10T15:09:04;12.25;;;9.52;;
75165;SDS011;63747;48.042;10.088;2022-12-10T15:12:20;16.58;;;11.13;;
75165;SDS011;63747;48.042;10.088;2022-12-10T15:15:37;14.30;;;10.50;;
75165;SDS011;63747;48.042;10.088;2022-12-10T15:18:40;15.55;;;10.52;;
75165;SDS011;63747;48.042;10.088;2022-12-10T15:21:45;16.60;;;11.38;;
75165;SDS011;63747;48.042;10.088;2022-12-10T15:24:59;17.00;;;11.45;;
75165;SDS011;63747;48.042;10.088;2022-12-10T15:28:27;19.20;;;12.82;;
75165;SDS011;63747;48.042;10.088;2022-12-10T15:31:40;14.98;;;10.75;;
75165;SDS011;63747;48.042;10.088;2022-12-10T15:34:58;16.13;;;10.13;;
75165;SDS011;63747;48.042;10.088;2022-12-10T15:38:01;12.85;;;9.13;;
75165;SDS011;63747;48.042;10.088;2022-12-10T15:44:39;14.93;;;9.85;;
75165;SDS011;63747;48.042;10.088;2022-12-10T15:47:42;17.15;;;10.82;;
75165;SDS011;63747;48.042;10.088;2022-12-10T15:50:43;16.00;;;11.43;;
75165;SDS011;63747;48.042;10.088;2022-12-10T15:53:49;17.30;;;12.02;;
75165;SDS011;63747;48.042;10.088;2022-12-10T15:56:49;16.30;;;11.33;;
75165;SDS011;63747;48.042;10.088;2022-12-10T15:59:52;14.47;;;10.67;;
75165;SDS011;63747;48.042;10.088;2022-12-10T16:02:58;13.65;;;10.43;;
75165;SDS011;63747;48.042;10.088;2022-12-10T16:06:05;15.77;;;11.70;;
75165;SDS011;63747;48.042;10.088;2022-12-10T16:09:18;22.05;;;15.18;;
75165;SDS011;63747;48.042;10.088;2022-12-10T16:12:22;19.80;;;14.68;;
75165;SDS011;63747;48.042;10.088;2022-12-10T16:15:24;20.50;;;15.30;;
75165;SDS011;63747;48.042;10.088;2022-12-10T16:18:31;20.40;;;14.60;;
75165;SDS011;63747;48.042;10.088;2022-12-10T16:21:32;21.23;;;15.13;;
75165;SDS011;63747;48.042;10.088;2022-12-10T16:24:33;26.63;;;22.03;;
75165;SDS011;63747;48.042;10.088;2022-12-10T16:27:34;24.13;;;19.43;;
75165;SDS011;63747;48.042;10.088;2022-12-10T16:30:43;19.83;;;15.02;;
75165;SDS011;63747;48.042;10.088;2022-12-10T16:33:46;22.27;;;15.02;;
75165;SDS011;63747;48.042;10.088;2022-12-10T16:36:49;27.02;;;19.25;;
75165;SDS011;63747;48.042;10.088;2022-12-10T16:39:51;21.55;;;17.02;;
75165;SDS011;63747;48.042;10.088;2022-12-10T16:42:52;22.63;;;16.73;;
75165;SDS011;63747;48.042;10.088;2022-12-10T16:45:53;27.13;;;16.03;;
75165;SDS011;63747;48.042;10.088;2022-12-10T16:48:57;20.95;;;15.70;;
75165;SDS011;63747;48.042;10.088;2022-12-10T16:52:02;18.08;;;13.88;;
75165;SDS011;63747;48.042;10.088;2022-12-10T16:55:04;19.10;;;13.88;;
75165;SDS011;63747;48.042;10.088;2022-12-10T16:58:09;20.67;;;15.35;;
75165;SDS011;63747;48.042;10.088;2022-12-10T17:01:21;20.25;;;14.90;;
75165;SDS011;63747;48.042;10.088;2022-12-10T17:04:31;24.02;;;17.30;;
75165;SDS011;63747;48.042;10.088;2022-12-10T17:07:52;24.25;;;18.60;;
75165;SDS011;63747;48.042;10.088;2022-12-10T17:10:53;27.60;;;19.73;;
75165;SDS011;63747;48.042;10.088;2022-12-10T17:17:23;26.45;;;20.23;;
75165;SDS011;63747;48.042;10.088;2022-12-10T17:23:25;26.08;;;19.38;;
75165;SDS011;63747;48.042;10.088;2022-12-10T17:26:27;27.00;;;19.67;;
75165;SDS011;63747;48.042;10.088;2022-12-10T17:29:35;27.30;;;19.15;;
75165;SDS011;63747;48.042;10.088;2022-12-10T17:32:41;27.95;;;20.80;;
75165;SDS011;63747;48.042;10.088;2022-12-10T17:35:43;26.80;;;20.05;;
75165;SDS011;63747;48.042;10.088;2022-12-10T17:38:45;26.95;;;19.58;;
75165;SDS011;63747;48.042;10.088;2022-12-10T17:41:46;25.30;;;19.63;;
75165;SDS011;63747;48.042;10.088;2022-12-10T17:44:47;30.15;;;20.83;;
75165;SDS011;63747;48.042;10.088;2022-12-10T17:47:47;27.60;;;20.80;;
75165;SDS011;63747;48.042;10.088;2022-12-10T17:50:48;28.50;;;20.63;;
75165;SDS011;63747;48.042;10.088;2022-12-10T17:53:49;28.73;;;20.20;;
75165;SDS011;63747;48.042;10.088;2022-12-10T17:56:50;27.92;;;20.70;;
75165;SDS011;63747;48.042;10.088;2022-12-10T17:59:51;27.97;;;20.17;;
75165;SDS011;63747;48.042;10.088;2022-12-10T18:02:52;29.50;;;20.67;;
75165;SDS011;63747;48.042;10.088;2022-12-10T18:05:54;29.23;;;20.95;;
75165;SDS011;63747;48.042;10.088;2022-12-10T18:08:55;28.43;;;20.33;;
75165;SDS011;63747;48.042;10.088;2022-12-10T18:11:58;25.63;;;18.58;;
75165;SDS011;63747;48.042;10.088;2022-12-10T18:14:59;27.67;;;19.70;;
75165;SDS011;63747;48.042;10.088;2022-12-10T18:17:59;27.40;;;18.40;;
75165;SDS011;63747;48.042;10.088;2022-12-10T18:24:02;25.85;;;19.65;;
75165;SDS011;63747;48.042;10.088;2022-12-10T18:27:03;26.70;;;18.90;;
75165;SDS011;63747;48.042;10.088;2022-12-10T18:30:04;29.13;;;19.77;;
75165;SDS011;63747;48.042;10.088;2022-12-10T18:33:05;31.67;;;20.83;;
75165;SDS011;63747;48.042;10.088;2022-12-10T18:36:08;32.60;;;23.00;;
75165;SDS011;63747;48.042;10.088;2022-12-10T18:39:29;31.45;;;22.95;;
75165;SDS011;63747;48.042;10.088;2022-12-10T18:42:33;31.52;;;22.15;;
75165;SDS011;63747;48.042;10.088;2022-12-10T18:45:34;34.03;;;23.17;;
75165;SDS011;63747;48.042;10.088;2022-12-10T18:48:34;35.50;;;25.73;;
75165;SDS011;63747;48.042;10.088;2022-12-10T18:51:35;37.50;;;25.73;;
75165;SDS011;63747;48.042;10.088;2022-12-10T18:54:37;30.20;;;22.70;;
75165;SDS011;63747;48.042;10.088;2022-12-10T18:57:37;32.93;;;23.50;;
75165;SDS011;63747;48.042;10.088;2022-12-10T19:00:38;36.03;;;24.20;;
75165;SDS011;63747;48.042;10.088;2022-12-10T19:03:39;32.35;;;23.20;;
75165;SDS011;63747;48.042;10.088;2022-12-10T19:06:40;36.23;;;25.90;;
75165;SDS011;63747;48.042;10.088;2022-12-10T19:09:41;38.65;;;26.38;;
75165;SDS011;63747;48.042;10.088;2022-12-10T19:12:42;34.57;;;25.23;;
75165;SDS011;63747;48.042;10.088;2022-12-10T19:15:43;41.63;;;27.90;;
75165;SDS011;63747;48.042;10.088;2022-12-10T19:18:44;33.77;;;25.17;;
75165;SDS011;63747;48.042;10.088;2022-12-10T19:21:45;37.63;;;26.60;;
75165;SDS011;63747;48.042;10.088;2022-12-10T19:24:46;30.87;;;25.17;;
75165;SDS011;63747;48.042;10.088;2022-12-10T19:27:47;32.43;;;24.97;;
75165;SDS011;63747;48.042;10.088;2022-12-10T19:30:48;32.40;;;24.48;;
75165;SDS011;63747;48.042;10.088;2022-12-10T19:33:49;39.05;;;25.88;;
75165;SDS011;63747;48.042;10.088;2022-12-10T19:36:50;34.97;;;25.43;;
75165;SDS011;63747;48.042;10.088;2022-12-10T19:39:50;42.07;;;29.07;;
75165;SDS011;63747;48.042;10.088;2022-12-10T19:42:52;38.60;;;28.90;;
75165;SDS011;63747;48.042;10.088;2022-12-10T19:45:53;36.40;;;25.50;;
75165;SDS011;63747;48.042;10.088;2022-12-10T19:48:53;36.40;;;25.57;;
75165;SDS011;63747;48.042;10.088;2022-12-10T19:51:54;35.93;;;25.83;;
75165;SDS011;63747;48.042;10.088;2022-12-10T19:54:55;38.07;;;26.13;;
75165;SDS011;63747;48.042;10.088;2022-12-10T19:57:56;41.60;;;28.30;;
75165;SDS011;63747;48.042;10.088;2022-12-10T20:00:57;35.80;;;25.80;;
75165;SDS011;63747;48.042;10.088;2022-12-10T20:03:57;34.77;;;25.43;;
75165;SDS011;63747;48.042;10.088;2022-12-10T20:06:58;36.47;;;25.50;;
75165;SDS011;63747;48.042;10.088;2022-12-10T20:09:59;35.80;;;25.67;;
75165;SDS011;63747;48.042;10.088;2022-12-10T20:12:59;34.30;;;24.60;;
75165;SDS011;63747;48.042;10.088;2022-12-10T20:16:00;32.97;;;23.77;;
75165;SDS011;63747;48.042;10.088;2022-12-10T20:19:01;36.00;;;26.00;;
75165;SDS011;63747;48.042;10.088;2022-12-10T20:22:03;37.42;;;26.17;;
75165;SDS011;63747;48.042;10.088;2022-12-10T20:28:05;35.45;;;24.00;;
75165;SDS011;63747;48.042;10.088;2022-12-10T20:31:06;38.78;;;26.05;;
75165;SDS011;63747;48.042;10.088;2022-12-10T20:34:07;34.67;;;24.17;;
75165;SDS011;63747;48.042;10.088;2022-12-10T20:41:10;40.03;;;26.55;;
75165;SDS011;63747;48.042;10.088;2022-12-10T20:44:12;42.00;;;27.15;;
75165;SDS011;63747;48.042;10.088;2022-12-10T20:47:12;32.63;;;24.37;;
75165;SDS011;63747;48.042;10.088;2022-12-10T20:50:14;33.20;;;24.30;;
75165;SDS011;63747;48.042;10.088;2022-12-10T20:53:16;39.05;;;24.98;;
75165;SDS011;63747;48.042;10.088;2022-12-10T20:56:18;34.80;;;25.43;;
75165;SDS011;63747;48.042;10.088;2022-12-10T20:59:20;37.17;;;25.02;;
75165;SDS011;63747;48.042;10.088;2022-12-10T21:02:21;35.23;;;25.33;;